Bayshore Gardens, Florida
Current Conditions -  °F | °C
As of 1:53 PM on Friday 24 Oct 2014 (Local Time) from KSRQ Reporting Station
Scattered Clouds Scattered Clouds  
Wind Chill: 80°   Ceiling: Unl
Heat Index: 81°   Visibility: 10mi
Dew Point: 59°   Wind: 9mph
Humidity: 48%   Direction: 40°NE
Pressure: 29.92"   Gusts: NA
Location:  27.4402°N, 82.5786°W
Report Text: KSRQ 241753Z 04008KT 10SM SCT046 27/15 A2992 RMK AO2 SLP130 T02670150 10272 20172 58018
Loading
Personal Weather Stations






























Interactive Weather Map New forecast layout! Learn more

10-Day Weather Forecast

Advertisements
Track Severe Weather on mobile